createdAt,value
2023-03-18T00:00:12.474Z,12.20
2023-03-18T00:00:24.287Z,12.20
2023-03-18T00:00:36.200Z,12.20
2023-03-18T00:00:47.941Z,12.20
2023-03-18T00:01:03.872Z,12.20
2023-03-18T00:01:16.050Z,12.20
2023-03-18T00:01:28.162Z,12.20
2023-03-18T00:01:39.962Z,12.20
2023-03-18T00:01:51.928Z,12.20
2023-03-18T00:02:03.769Z,12.20
2023-03-18T00:02:15.713Z,12.20
2023-03-18T00:02:28.068Z,12.20
2023-03-18T00:02:40.345Z,12.20
2023-03-18T00:02:52.722Z,12.20
2023-03-18T00:03:04.660Z,12.20
2023-03-18T00:03:16.484Z,12.20
2023-03-18T00:03:28.658Z,12.20
2023-03-18T00:03:40.596Z,12.20
2023-03-18T00:03:52.438Z,12.20
2023-03-18T00:04:04.555Z,12.20
2023-03-18T00:04:16.912Z,12.20
2023-03-18T00:04:29.552Z,12.20
2023-03-18T00:04:41.313Z,12.20
2023-03-18T00:04:53.596Z,12.20
2023-03-18T00:05:07.611Z,12.20
2023-03-18T00:05:19.966Z,12.20
2023-03-18T00:05:32.184Z,12.20
2023-03-18T00:05:43.890Z,12.20
2023-03-18T00:06:06.576Z,12.20
2023-03-18T00:06:19.621Z,12.20
2023-03-18T00:06:31.392Z,12.20
2023-03-18T00:06:43.580Z,12.20
2023-03-18T00:06:55.318Z,12.20
2023-03-18T00:07:07.090Z,12.20
2023-03-18T00:07:18.828Z,12.20
2023-03-18T00:07:31.515Z,12.20
2023-03-18T00:07:43.303Z,12.20
2023-03-18T00:07:55.145Z,12.20
2023-03-18T00:08:06.881Z,12.20
2023-03-18T00:08:18.665Z,12.20
2023-03-18T00:08:30.500Z,12.20
2023-03-18T00:08:42.729Z,12.20
2023-03-18T00:08:54.511Z,12.20
2023-03-18T00:09:07.071Z,12.20
2023-03-18T00:09:18.791Z,12.20
2023-03-18T00:09:30.500Z,12.20
2023-03-18T00:09:42.506Z,12.10
2023-03-18T00:09:54.310Z,12.20
2023-03-18T00:10:06.669Z,12.10
2023-03-18T00:10:18.941Z,12.10
2023-03-18T00:10:31.785Z,12.10
2023-03-18T00:10:43.960Z,12.20
2023-03-18T00:10:55.649Z,12.10
2023-03-18T00:11:07.888Z,12.20
2023-03-18T00:11:21.339Z,12.10
2023-03-18T00:11:33.224Z,12.10
2023-03-18T00:11:46.101Z,12.20
2023-03-18T00:11:58.105Z,12.20
2023-03-18T00:12:10.771Z,12.20
2023-03-18T00:12:24.840Z,12.10
2023-03-18T00:12:38.729Z,12.10
2023-03-18T00:12:50.507Z,12.20
2023-03-18T00:13:04.531Z,12.10
2023-03-18T00:13:16.330Z,12.20
2023-03-18T00:13:28.096Z,12.10
2023-03-18T00:13:41.430Z,12.20
2023-03-18T00:13:53.320Z,12.20
2023-03-18T00:14:05.619Z,12.20
2023-03-18T00:14:17.621Z,12.20
2023-03-18T00:14:30.011Z,12.20
2023-03-18T00:14:41.938Z,12.20
2023-03-18T00:14:53.801Z,12.20
2023-03-18T00:15:09.899Z,12.20
2023-03-18T00:15:21.641Z,12.20
2023-03-18T00:15:33.444Z,12.20
2023-03-18T00:15:45.258Z,12.20
2023-03-18T00:15:57.023Z,12.20
2023-03-18T00:16:11.442Z,12.20
2023-03-18T00:16:23.567Z,12.20
2023-03-18T00:16:36.872Z,12.20
2023-03-18T00:16:49.355Z,12.10
2023-03-18T00:17:01.129Z,12.20
2023-03-18T00:17:12.924Z,12.20
2023-03-18T00:17:25.707Z,12.20
2023-03-18T00:17:37.849Z,12.20
2023-03-18T00:17:49.630Z,12.20
2023-03-18T00:18:01.340Z,12.20
2023-03-18T00:18:13.088Z,12.10
2023-03-18T00:18:25.681Z,12.20
2023-03-18T00:18:37.676Z,12.10
2023-03-18T00:18:49.810Z,12.20
2023-03-18T00:19:02.686Z,12.20
2023-03-18T00:19:14.549Z,12.10
2023-03-18T00:19:26.232Z,12.10
2023-03-18T00:19:38.186Z,12.10
2023-03-18T00:19:50.347Z,12.10
2023-03-18T00:20:07.000Z,12.10
2023-03-18T00:20:28.872Z,12.10
2023-03-18T00:20:40.642Z,12.10
2023-03-18T00:20:52.535Z,12.10
2023-03-18T00:21:04.864Z,12.10
2023-03-18T00:21:16.869Z,12.10
2023-03-18T00:21:29.656Z,12.10
2023-03-18T00:21:41.403Z,12.10
2023-03-18T00:21:53.097Z,12.10
2023-03-18T00:22:04.952Z,12.10
2023-03-18T00:22:17.290Z,12.10
2023-03-18T00:22:29.811Z,12.10
2023-03-18T00:22:41.574Z,12.10
2023-03-18T00:22:53.375Z,12.10
2023-03-18T00:23:08.718Z,12.10
2023-03-18T00:23:21.178Z,12.10
2023-03-18T00:23:33.159Z,12.10
2023-03-18T00:23:44.992Z,12.10
2023-03-18T00:23:58.665Z,12.10
2023-03-18T00:24:11.858Z,12.10
2023-03-18T00:24:23.609Z,12.10
2023-03-18T00:24:35.822Z,12.10
2023-03-18T00:24:49.019Z,12.10
2023-03-18T00:25:00.985Z,12.10
2023-03-18T00:25:13.754Z,12.10
2023-03-18T00:25:26.517Z,12.10
2023-03-18T00:25:38.967Z,12.10
2023-03-18T00:25:52.540Z,12.10
2023-03-18T00:26:04.591Z,12.10
2023-03-18T00:26:17.148Z,12.10
2023-03-18T00:26:28.996Z,12.10
2023-03-18T00:26:40.828Z,12.10
2023-03-18T00:26:52.561Z,12.10
2023-03-18T00:27:04.487Z,12.10
2023-03-18T00:27:16.272Z,12.10
2023-03-18T00:27:28.513Z,12.10
2023-03-18T00:27:40.336Z,12.10
2023-03-18T00:27:52.305Z,12.10
2023-03-18T00:28:07.379Z,12.10
2023-03-18T00:28:19.181Z,12.10
2023-03-18T00:28:31.680Z,12.10
2023-03-18T00:28:43.449Z,12.10
2023-03-18T00:28:55.739Z,12.10
2023-03-18T00:29:07.788Z,12.10
2023-03-18T00:29:19.644Z,12.10
2023-03-18T00:29:31.416Z,12.10
2023-03-18T00:29:43.807Z,12.10
2023-03-18T00:29:56.089Z,12.10
2023-03-18T00:30:08.464Z,12.10
2023-03-18T00:30:20.377Z,12.10
2023-03-18T00:30:32.991Z,12.10
2023-03-18T00:30:44.943Z,12.10
2023-03-18T00:31:08.543Z,12.10
2023-03-18T00:31:20.893Z,12.10
2023-03-18T00:31:32.767Z,12.00
2023-03-18T00:31:44.860Z,12.10
2023-03-18T00:31:59.256Z,12.00
2023-03-18T00:32:11.214Z,12.00
2023-03-18T00:32:23.443Z,12.00
2023-03-18T00:32:35.239Z,12.00
2023-03-18T00:32:47.413Z,12.00
2023-03-18T00:33:00.166Z,12.00
2023-03-18T00:33:12.407Z,12.00
2023-03-18T00:33:24.427Z,12.00
2023-03-18T00:33:38.080Z,12.00
2023-03-18T00:33:50.378Z,12.00
2023-03-18T00:34:02.113Z,12.00
2023-03-18T00:34:14.833Z,12.00
2023-03-18T00:34:26.688Z,12.00
2023-03-18T00:34:39.495Z,12.00
2023-03-18T00:34:51.601Z,12.00
2023-03-18T00:35:03.897Z,12.00
2023-03-18T00:35:16.530Z,12.00
2023-03-18T00:35:28.314Z,12.00
2023-03-18T00:35:40.078Z,12.00
2023-03-18T00:35:53.256Z,12.00
2023-03-18T00:36:06.762Z,12.00
2023-03-18T00:36:19.059Z,12.00
2023-03-18T00:36:30.994Z,12.00
2023-03-18T00:36:44.357Z,12.00
2023-03-18T00:36:56.968Z,12.00
2023-03-18T00:37:10.399Z,12.00
2023-03-18T00:37:30.573Z,12.00
2023-03-18T00:37:43.494Z,12.00
2023-03-18T00:37:55.475Z,12.00
2023-03-18T00:38:09.007Z,12.00
2023-03-18T00:38:21.145Z,12.00
2023-03-18T00:38:33.627Z,12.00
2023-03-18T00:38:46.609Z,12.00
2023-03-18T00:38:58.412Z,12.00
2023-03-18T00:39:11.013Z,12.00
2023-03-18T00:39:26.652Z,11.90
2023-03-18T00:39:38.433Z,12.00
2023-03-18T00:39:50.349Z,12.00
2023-03-18T00:40:17.298Z,12.00
2023-03-18T00:40:43.012Z,12.00
2023-03-18T00:41:01.460Z,12.00
2023-03-18T00:41:15.791Z,12.00
2023-03-18T00:41:28.160Z,12.00
2023-03-18T00:41:39.914Z,11.90
2023-03-18T00:41:52.933Z,11.90
2023-03-18T00:42:10.720Z,11.90
2023-03-18T00:42:23.730Z,11.90
2023-03-18T00:42:39.296Z,11.90
2023-03-18T00:42:57.637Z,12.00
2023-03-18T00:43:10.714Z,11.90
2023-03-18T00:43:29.164Z,12.00
2023-03-18T00:43:52.513Z,11.90
2023-03-18T00:44:04.703Z,11.90
2023-03-18T00:44:16.435Z,11.90
2023-03-18T00:44:28.179Z,11.90
2023-03-18T00:44:40.067Z,11.90
2023-03-18T00:44:52.409Z,11.90
2023-03-18T00:45:04.878Z,11.90
2023-03-18T00:45:17.278Z,11.90
2023-03-18T00:45:29.987Z,11.90
2023-03-18T00:45:42.732Z,11.90
2023-03-18T00:45:55.063Z,11.90
2023-03-18T00:46:07.290Z,11.90
2023-03-18T00:46:22.165Z,11.90
2023-03-18T00:46:35.208Z,11.90
2023-03-18T00:46:47.202Z,11.90
2023-03-18T00:46:58.983Z,11.90
2023-03-18T00:47:10.837Z,11.90
2023-03-18T00:47:23.156Z,11.90
2023-03-18T00:47:35.808Z,11.90
2023-03-18T00:47:48.465Z,11.90
2023-03-18T00:48:00.174Z,11.90
2023-03-18T00:48:11.925Z,11.90
2023-03-18T00:48:24.148Z,11.90
2023-03-18T00:48:36.422Z,11.90
2023-03-18T00:48:48.277Z,11.90
2023-03-18T00:49:05.146Z,11.90
2023-03-18T00:49:17.742Z,11.90
2023-03-18T00:49:29.596Z,11.90
2023-03-18T00:49:41.706Z,11.80
2023-03-18T00:49:53.451Z,11.80
2023-03-18T00:50:07.336Z,11.80
2023-03-18T00:50:19.348Z,11.80
2023-03-18T00:50:31.318Z,11.80
2023-03-18T00:50:45.022Z,11.90
2023-03-18T00:50:56.926Z,11.90
2023-03-18T00:51:08.865Z,11.80
2023-03-18T00:51:21.470Z,11.80
2023-03-18T00:51:36.448Z,11.80
2023-03-18T00:51:48.141Z,11.80
2023-03-18T00:52:00.826Z,11.80
2023-03-18T00:52:12.708Z,11.90
2023-03-18T00:52:25.744Z,11.80
2023-03-18T00:52:37.730Z,11.80
2023-03-18T00:52:49.933Z,11.80
2023-03-18T00:53:01.720Z,11.80
2023-03-18T00:53:14.349Z,11.80
2023-03-18T00:53:26.183Z,11.80
2023-03-18T00:53:38.846Z,11.80
2023-03-18T00:53:52.485Z,11.80
2023-03-18T00:54:09.300Z,11.80
2023-03-18T00:54:21.174Z,11.80
2023-03-18T00:54:34.036Z,11.80
2023-03-18T00:54:45.910Z,11.80
2023-03-18T00:54:57.688Z,11.80
2023-03-18T00:55:10.605Z,11.80
2023-03-18T00:55:22.652Z,11.80
2023-03-18T00:55:35.121Z,11.80
2023-03-18T00:55:46.978Z,11.80
2023-03-18T00:55:58.766Z,11.80
2023-03-18T00:56:11.422Z,11.80
2023-03-18T00:56:25.577Z,11.80
2023-03-18T00:56:40.164Z,11.80
2023-03-18T00:56:51.962Z,11.80
2023-03-18T00:57:03.929Z,11.90
2023-03-18T00:57:16.963Z,11.80
2023-03-18T00:57:29.413Z,11.80
2023-03-18T00:57:41.525Z,11.80
2023-03-18T00:57:53.635Z,11.80
2023-03-18T00:58:05.387Z,11.80
2023-03-18T00:58:17.120Z,11.80
2023-03-18T00:58:28.856Z,11.80
2023-03-18T00:58:41.021Z,11.80
2023-03-18T00:58:53.843Z,11.80
2023-03-18T00:59:06.414Z,11.80
2023-03-18T00:59:18.820Z,11.90
2023-03-18T00:59:30.546Z,11.80
2023-03-18T00:59:42.843Z,11.80
2023-03-18T00:59:54.724Z,11.80
2023-03-18T01:00:07.306Z,11.80
2023-03-18T01:00:19.704Z,11.80
2023-03-18T01:00:32.100Z,11.80
2023-03-18T01:00:44.172Z,11.80
2023-03-18T01:00:57.139Z,11.80
2023-03-18T01:01:09.139Z,11.80
2023-03-18T01:01:21.528Z,11.80
2023-03-18T01:01:33.405Z,11.80
2023-03-18T01:01:45.178Z,11.80
2023-03-18T01:01:56.962Z,11.80
2023-03-18T01:02:08.840Z,11.80
2023-03-18T01:02:20.711Z,11.80
2023-03-18T01:02:32.682Z,11.80
2023-03-18T01:02:44.458Z,11.80
2023-03-18T01:02:56.266Z,11.90
2023-03-18T01:03:08.123Z,11.80
2023-03-18T01:03:19.887Z,11.90
2023-03-18T01:03:31.946Z,11.80
2023-03-18T01:03:43.799Z,11.80
2023-03-18T01:03:55.794Z,11.80
2023-03-18T01:04:07.636Z,11.80
2023-03-18T01:04:19.445Z,11.80
2023-03-18T01:04:31.238Z,11.80
2023-03-18T01:04:42.988Z,11.80
2023-03-18T01:04:54.867Z,11.80
2023-03-18T01:05:06.801Z,11.80
2023-03-18T01:05:18.776Z,11.80
2023-03-18T01:05:31.853Z,11.80
2023-03-18T01:05:44.063Z,11.80
2023-03-18T01:05:56.398Z,11.80
2023-03-18T01:06:10.125Z,11.80
2023-03-18T01:06:23.875Z,11.80
2023-03-18T01:06:37.450Z,11.80
2023-03-18T01:06:49.210Z,11.80
2023-03-18T01:07:01.317Z,11.90
2023-03-18T01:07:13.306Z,11.80
2023-03-18T01:07:25.152Z,11.80
2023-03-18T01:07:36.962Z,11.80
2023-03-18T01:07:49.291Z,11.80
2023-03-18T01:08:01.799Z,11.80
2023-03-18T01:08:13.592Z,11.80
2023-03-18T01:08:25.384Z,11.80
2023-03-18T01:08:37.597Z,11.80
2023-03-18T01:08:49.706Z,11.80
2023-03-18T01:09:02.692Z,11.80
2023-03-18T01:09:14.493Z,11.80
2023-03-18T01:09:26.287Z,11.80
2023-03-18T01:09:40.661Z,11.80
2023-03-18T01:09:52.727Z,11.80
2023-03-18T01:10:06.310Z,11.80
2023-03-18T01:10:18.215Z,11.80
2023-03-18T01:10:30.657Z,11.80
2023-03-18T01:10:42.734Z,11.80
2023-03-18T01:10:54.538Z,11.80
2023-03-18T01:11:06.330Z,11.80
2023-03-18T01:11:18.886Z,11.80
2023-03-18T01:11:30.627Z,11.80
2023-03-18T01:11:42.398Z,11.80
2023-03-18T01:11:54.262Z,11.80
2023-03-18T01:12:07.118Z,11.80
2023-03-18T01:12:18.831Z,11.80
2023-03-18T01:12:30.539Z,11.80
2023-03-18T01:12:43.754Z,11.80
2023-03-18T01:12:56.067Z,11.80
2023-03-18T01:13:07.956Z,11.80
2023-03-18T01:13:19.994Z,11.80
2023-03-18T01:13:32.109Z,11.80
2023-03-18T01:13:43.983Z,11.80
2023-03-18T01:13:55.729Z,11.80
2023-03-18T01:14:07.498Z,11.80
2023-03-18T01:14:19.490Z,11.80
2023-03-18T01:14:31.247Z,11.80
2023-03-18T01:14:43.247Z,11.80
2023-03-18T01:14:55.029Z,11.80
2023-03-18T01:15:12.772Z,11.80
2023-03-18T01:15:24.742Z,11.80
2023-03-18T01:15:37.001Z,11.80
2023-03-18T01:15:48.967Z,11.80
2023-03-18T01:16:01.753Z,11.80
2023-03-18T01:16:14.322Z,11.80
2023-03-18T01:16:26.496Z,11.80
2023-03-18T01:16:38.351Z,11.80
2023-03-18T01:16:50.439Z,11.80
2023-03-18T01:17:03.270Z,11.80
2023-03-18T01:17:15.509Z,11.80
2023-03-18T01:17:27.298Z,11.80
2023-03-18T01:17:39.107Z,11.80
2023-03-18T01:17:52.379Z,11.80
2023-03-18T01:18:04.472Z,11.80
2023-03-18T01:18:16.637Z,11.80
2023-03-18T01:18:28.411Z,11.80
2023-03-18T01:18:40.695Z,11.80
2023-03-18T01:18:52.544Z,11.80
2023-03-18T01:19:04.373Z,11.80
2023-03-18T01:19:16.174Z,11.80
2023-03-18T01:19:29.115Z,11.80
2023-03-18T01:19:40.910Z,11.70
2023-03-18T01:19:52.742Z,11.70
2023-03-18T01:20:05.003Z,11.70
2023-03-18T01:20:18.082Z,11.80
2023-03-18T01:20:30.360Z,11.70
2023-03-18T01:20:42.667Z,11.70
2023-03-18T01:20:54.398Z,11.70
2023-03-18T01:21:06.197Z,11.70
2023-03-18T01:21:18.081Z,11.70
2023-03-18T01:21:29.956Z,11.70
2023-03-18T01:21:41.771Z,11.70
2023-03-18T01:21:53.556Z,11.70
2023-03-18T01:22:05.493Z,11.70
2023-03-18T01:22:17.647Z,11.70
2023-03-18T01:22:29.505Z,11.70
2023-03-18T01:22:42.192Z,11.70
2023-03-18T01:22:53.924Z,11.70
2023-03-18T01:23:06.141Z,11.70
2023-03-18T01:23:17.894Z,11.70
2023-03-18T01:23:30.239Z,11.70
2023-03-18T01:23:42.426Z,11.70
2023-03-18T01:23:54.316Z,11.70
2023-03-18T01:24:06.594Z,11.70
2023-03-18T01:24:18.369Z,11.70
2023-03-18T01:24:30.517Z,11.70
2023-03-18T01:24:42.419Z,11.60
2023-03-18T01:24:54.170Z,11.60
2023-03-18T01:25:06.290Z,11.60
2023-03-18T01:25:18.293Z,11.60
2023-03-18T01:25:30.025Z,11.60
2023-03-18T01:25:42.572Z,11.60
2023-03-18T01:25:54.291Z,11.60
2023-03-18T01:26:06.152Z,11.60
2023-03-18T01:26:18.234Z,11.60
2023-03-18T01:26:30.200Z,11.60
2023-03-18T01:26:41.951Z,11.60
2023-03-18T01:26:53.657Z,11.60
2023-03-18T01:27:06.264Z,11.60
2023-03-18T01:27:18.446Z,11.60
2023-03-18T01:27:30.194Z,11.60
2023-03-18T01:27:42.358Z,11.60
2023-03-18T01:27:54.137Z,11.60
2023-03-18T01:28:06.190Z,11.60
2023-03-18T01:28:17.936Z,11.60
2023-03-18T01:28:29.713Z,11.60
2023-03-18T01:28:42.390Z,11.60
2023-03-18T01:28:54.219Z,11.60
2023-03-18T01:29:06.033Z,11.60
2023-03-18T01:29:18.120Z,11.60
2023-03-18T01:29:30.885Z,11.60
2023-03-18T01:29:42.633Z,11.60
2023-03-18T01:29:54.709Z,11.60
2023-03-18T01:30:06.928Z,11.60
2023-03-18T01:30:19.622Z,11.60
2023-03-18T01:30:31.649Z,11.60
2023-03-18T01:30:43.744Z,11.60
2023-03-18T01:30:57.280Z,11.60
2023-03-18T01:31:09.475Z,11.60
2023-03-18T01:31:21.195Z,11.60
2023-03-18T01:31:34.849Z,11.60
2023-03-18T01:31:47.244Z,11.60
2023-03-18T01:31:59.191Z,11.60
2023-03-18T01:32:10.950Z,11.60
2023-03-18T01:32:24.110Z,11.60
2023-03-18T01:32:36.351Z,11.60
2023-03-18T01:32:48.816Z,11.60
2023-03-18T01:33:00.894Z,11.60
2023-03-18T01:33:13.400Z,11.60
2023-03-18T01:33:25.844Z,11.60
2023-03-18T01:33:37.706Z,11.60
2023-03-18T01:33:49.928Z,11.60
2023-03-18T01:34:02.166Z,11.60
2023-03-18T01:34:14.170Z,11.60
2023-03-18T01:34:26.057Z,11.60
2023-03-18T01:34:37.758Z,11.50
2023-03-18T01:34:49.740Z,11.60
2023-03-18T01:35:01.725Z,11.50
2023-03-18T01:35:13.637Z,11.60
2023-03-18T01:35:25.872Z,11.60
2023-03-18T01:35:37.851Z,11.60
2023-03-18T01:35:56.741Z,11.60
2023-03-18T01:36:09.504Z,11.60
2023-03-18T01:36:22.179Z,11.60
2023-03-18T01:36:34.112Z,11.60
2023-03-18T01:36:46.430Z,11.60
2023-03-18T01:36:58.239Z,11.60
2023-03-18T01:37:10.100Z,11.60
2023-03-18T01:37:33.510Z,11.60
2023-03-18T01:37:46.818Z,11.60
2023-03-18T01:37:59.098Z,11.60
2023-03-18T01:38:11.130Z,11.60
2023-03-18T01:38:23.902Z,11.60
2023-03-18T01:38:35.661Z,11.60
2023-03-18T01:38:47.490Z,11.60
2023-03-18T01:38:59.254Z,11.60
2023-03-18T01:39:11.036Z,11.60
2023-03-18T01:39:23.517Z,11.60
2023-03-18T01:39:35.708Z,11.60
2023-03-18T01:39:47.586Z,11.60
2023-03-18T01:39:59.382Z,11.60
2023-03-18T01:40:11.766Z,11.60
2023-03-18T01:40:23.555Z,11.50
2023-03-18T01:40:37.052Z,11.60
2023-03-18T01:40:48.867Z,11.60
2023-03-18T01:41:00.888Z,11.60
2023-03-18T01:41:12.662Z,11.60
2023-03-18T01:41:25.924Z,11.60
2023-03-18T01:41:37.751Z,11.50
2023-03-18T01:41:49.923Z,11.50
2023-03-18T01:42:01.616Z,11.50
2023-03-18T01:42:14.521Z,11.50
2023-03-18T01:42:26.302Z,11.60
2023-03-18T01:42:38.285Z,11.60
2023-03-18T01:43:04.992Z,11.60
2023-03-18T01:43:21.533Z,11.60
2023-03-18T01:43:35.251Z,11.60
2023-03-18T01:43:47.413Z,11.60
2023-03-18T01:43:59.754Z,11.60
2023-03-18T01:44:19.275Z,11.60
2023-03-18T01:44:31.582Z,11.60
2023-03-18T01:44:44.100Z,11.60
2023-03-18T01:45:13.246Z,11.60
2023-03-18T01:45:29.300Z,11.60
2023-03-18T01:45:43.039Z,11.50
2023-03-18T01:45:56.347Z,11.50
2023-03-18T01:46:36.851Z,11.60
2023-03-18T01:46:50.028Z,11.50
2023-03-18T01:47:02.070Z,11.60
2023-03-18T01:47:13.904Z,11.50
2023-03-18T01:47:25.604Z,11.50
2023-03-18T01:47:37.360Z,11.50
2023-03-18T01:47:49.846Z,11.50
2023-03-18T01:48:01.676Z,11.50
2023-03-18T01:48:17.553Z,11.60
2023-03-18T01:48:31.657Z,11.50
2023-03-18T01:48:43.740Z,11.60
2023-03-18T01:48:55.519Z,11.50
2023-03-18T01:49:25.053Z,11.60
2023-03-18T01:49:42.351Z,11.60
2023-03-18T01:49:54.098Z,11.60
2023-03-18T01:50:05.985Z,11.60
2023-03-18T01:50:27.380Z,11.60
2023-03-18T01:50:39.136Z,11.50
2023-03-18T01:50:54.665Z,11.60
2023-03-18T01:51:08.729Z,11.50
2023-03-18T01:51:20.512Z,11.50
2023-03-18T01:51:32.429Z,11.50
2023-03-18T01:51:47.401Z,11.60
2023-03-18T01:52:02.712Z,11.60
2023-03-18T01:52:27.107Z,11.50
2023-03-18T01:52:38.934Z,11.60
2023-03-18T01:52:54.232Z,11.60
2023-03-18T01:53:08.720Z,11.50
2023-03-18T01:53:21.338Z,11.50
2023-03-18T01:53:39.585Z,11.50
2023-03-18T01:53:51.279Z,11.50
2023-03-18T01:54:03.633Z,11.50
2023-03-18T01:54:16.901Z,11.60
2023-03-18T01:54:29.254Z,11.50
2023-03-18T01:54:43.914Z,11.60
2023-03-18T01:54:58.954Z,11.60
2023-03-18T01:55:14.067Z,11.60
2023-03-18T01:55:28.463Z,11.60
2023-03-18T01:55:40.983Z,11.60
2023-03-18T01:55:52.738Z,11.60
2023-03-18T01:56:04.688Z,11.60
2023-03-18T01:56:16.792Z,11.60
2023-03-18T01:56:28.492Z,11.60
2023-03-18T01:56:41.368Z,11.60
2023-03-18T01:56:54.002Z,11.60
2023-03-18T01:57:05.753Z,11.60
2023-03-18T01:57:18.032Z,11.60
2023-03-18T01:57:30.124Z,11.60
2023-03-18T01:57:42.473Z,11.60
2023-03-18T01:57:54.256Z,11.60
2023-03-18T01:58:42.245Z,11.60
2023-03-18T01:58:55.037Z,11.60
2023-03-18T01:59:07.965Z,11.60
2023-03-18T01:59:21.583Z,11.60
2023-03-18T01:59:34.612Z,11.60
2023-03-18T01:59:47.086Z,11.60
2023-03-18T01:59:58.866Z,11.60
2023-03-18T02:00:11.537Z,11.60
2023-03-18T02:00:23.433Z,11.60
2023-03-18T02:00:37.202Z,11.60
2023-03-18T02:01:11.950Z,11.60
2023-03-18T02:01:27.705Z,11.60
2023-03-18T02:01:48.167Z,11.60
2023-03-18T02:02:11.031Z,11.60
2023-03-18T02:02:22.801Z,11.60
2023-03-18T02:02:34.895Z,11.60
2023-03-18T02:02:47.968Z,11.60
2023-03-18T02:03:00.198Z,11.60
2023-03-18T02:03:11.932Z,11.60
2023-03-18T02:03:23.660Z,11.60
2023-03-18T02:03:35.565Z,11.60
2023-03-18T02:03:47.245Z,11.60
2023-03-18T02:04:00.431Z,11.60
2023-03-18T02:04:12.224Z,11.60
2023-03-18T02:04:27.003Z,11.60
2023-03-18T02:04:41.214Z,11.60
2023-03-18T02:04:54.944Z,11.60
2023-03-18T02:05:07.825Z,11.60
2023-03-18T02:05:35.994Z,11.60
2023-03-18T02:05:50.068Z,11.60
2023-03-18T02:06:03.153Z,11.60
2023-03-18T02:06:14.938Z,11.60
2023-03-18T02:06:26.761Z,11.60
2023-03-18T02:06:38.933Z,11.60
2023-03-18T02:06:50.978Z,11.60
2023-03-18T02:07:02.816Z,11.60
2023-03-18T02:07:23.808Z,11.60
2023-03-18T02:07:35.993Z,11.60
2023-03-18T02:07:47.719Z,11.60
2023-03-18T02:07:59.468Z,11.60
2023-03-18T02:08:11.214Z,11.70
2023-03-18T02:08:23.418Z,11.60
2023-03-18T02:08:35.202Z,11.60
2023-03-18T02:08:47.882Z,11.60
2023-03-18T02:09:00.454Z,11.70
2023-03-18T02:09:12.202Z,11.60
2023-03-18T02:09:23.881Z,11.60
2023-03-18T02:09:35.632Z,11.60
2023-03-18T02:09:47.629Z,11.60
2023-03-18T02:10:01.636Z,11.70
2023-03-18T02:10:19.306Z,11.70
2023-03-18T02:10:32.045Z,11.60
2023-03-18T02:10:45.475Z,11.60
2023-03-18T02:10:57.302Z,11.70
2023-03-18T02:11:09.430Z,11.60
2023-03-18T02:11:38.393Z,11.60
2023-03-18T02:11:50.186Z,11.60
2023-03-18T02:12:02.058Z,11.70
2023-03-18T02:12:15.445Z,11.60
2023-03-18T02:12:35.538Z,11.60
2023-03-18T02:12:51.690Z,11.60
2023-03-18T02:13:10.062Z,11.60
2023-03-18T02:13:21.774Z,11.60
2023-03-18T02:13:37.272Z,11.60
2023-03-18T02:13:49.097Z,11.60
2023-03-18T02:14:01.191Z,11.60
2023-03-18T02:14:13.457Z,11.60
2023-03-18T02:14:26.769Z,11.60
2023-03-18T02:14:38.529Z,11.60
2023-03-18T02:14:50.992Z,11.60
2023-03-18T02:15:06.062Z,11.60
2023-03-18T02:15:20.025Z,11.60
2023-03-18T02:15:33.827Z,11.60
2023-03-18T02:15:57.309Z,11.60
2023-03-18T02:16:25.639Z,11.60
2023-03-18T02:16:41.933Z,11.60
2023-03-18T02:17:02.866Z,11.60
2023-03-18T02:17:17.649Z,11.60
2023-03-18T02:17:35.948Z,11.60
2023-03-18T02:18:08.967Z,11.60
2023-03-18T02:18:28.393Z,11.50
2023-03-18T02:18:46.908Z,11.50
2023-03-18T02:19:01.170Z,11.60
2023-03-18T02:19:31.472Z,11.60
2023-03-18T02:20:06.566Z,11.50
2023-03-18T02:20:25.046Z,11.50
2023-03-18T02:20:58.723Z,11.50
2023-03-18T02:21:20.871Z,11.50
2023-03-18T02:21:43.552Z,11.50
2023-03-18T02:22:05.358Z,11.50
2023-03-18T02:22:31.095Z,11.50
2023-03-18T02:22:58.835Z,11.50
2023-03-18T02:23:33.202Z,11.50
2023-03-18T02:24:22.207Z,11.50
2023-03-18T02:24:49.716Z,11.50
2023-03-18T02:25:30.704Z,11.50
2023-03-18T02:25:54.000Z,11.50
2023-03-18T02:26:29.395Z,11.50
2023-03-18T02:26:51.906Z,11.50
2023-03-18T02:27:17.263Z,11.50
2023-03-18T02:27:31.128Z,11.50
2023-03-18T02:27:45.243Z,11.50
2023-03-18T02:28:07.805Z,11.50
2023-03-18T02:28:23.229Z,11.50
2023-03-18T02:28:34.992Z,11.50
2023-03-18T02:28:47.146Z,11.50
2023-03-18T02:29:01.409Z,11.50
2023-03-18T02:29:13.205Z,11.50
2023-03-18T02:29:25.134Z,11.50
2023-03-18T02:29:37.227Z,11.50
2023-03-18T02:29:49.310Z,11.50
2023-03-18T02:30:04.242Z,11.50
2023-03-18T02:30:19.036Z,11.50
2023-03-18T02:30:40.025Z,11.50
2023-03-18T02:30:54.454Z,11.50
2023-03-18T02:31:10.346Z,11.50
2023-03-18T02:31:22.760Z,11.50
2023-03-18T02:31:36.694Z,11.50
2023-03-18T02:31:48.636Z,11.50
2023-03-18T02:32:04.272Z,11.50
2023-03-18T02:32:16.221Z,11.50
2023-03-18T02:32:29.037Z,11.50
2023-03-18T02:32:41.236Z,11.50
2023-03-18T02:32:53.153Z,11.50
2023-03-18T02:33:05.047Z,11.50
2023-03-18T02:33:17.362Z,11.50
2023-03-18T02:33:34.604Z,11.50
2023-03-18T02:33:46.373Z,11.50
2023-03-18T02:33:59.128Z,11.50
2023-03-18T02:34:11.173Z,11.50
2023-03-18T02:34:26.109Z,11.50
2023-03-18T02:34:37.947Z,11.50
2023-03-18T02:34:49.745Z,11.50
2023-03-18T02:35:03.042Z,11.50
2023-03-18T02:35:14.938Z,11.50
2023-03-18T02:35:27.534Z,11.50
2023-03-18T02:35:39.466Z,11.50
2023-03-18T02:35:55.842Z,11.50
2023-03-18T02:36:30.169Z,11.50
2023-03-18T02:36:42.070Z,11.50
2023-03-18T02:36:53.849Z,11.50
2023-03-18T02:37:07.899Z,11.50
2023-03-18T02:37:19.646Z,11.50
2023-03-18T02:37:31.393Z,11.50
2023-03-18T02:37:43.215Z,11.50
2023-03-18T02:37:55.007Z,11.50
2023-03-18T02:38:06.830Z,11.50
2023-03-18T02:38:19.208Z,11.50
2023-03-18T02:38:31.135Z,11.50
2023-03-18T02:38:43.414Z,11.50
2023-03-18T02:38:55.205Z,11.50
2023-03-18T02:39:07.048Z,11.50
2023-03-18T02:39:18.805Z,11.60
2023-03-18T02:39:31.535Z,11.50
2023-03-18T02:39:43.290Z,11.50
2023-03-18T02:39:55.034Z,11.50
2023-03-18T02:40:23.609Z,11.50
2023-03-18T02:40:37.557Z,11.50
2023-03-18T02:40:49.367Z,11.50
2023-03-18T02:41:01.543Z,11.50
2023-03-18T02:41:18.206Z,11.50
2023-03-18T02:41:32.472Z,11.50
2023-03-18T02:41:44.862Z,11.50
2023-03-18T02:41:56.643Z,11.50
2023-03-18T02:42:12.385Z,11.50
2023-03-18T02:42:31.493Z,11.50
2023-03-18T02:42:43.732Z,11.50
2023-03-18T02:42:55.893Z,11.50
2023-03-18T02:43:28.002Z,11.50
2023-03-18T02:43:39.770Z,11.50
2023-03-18T02:43:51.651Z,11.50
2023-03-18T02:44:03.757Z,11.50
2023-03-18T02:44:15.542Z,11.50
2023-03-18T02:44:27.636Z,11.50
2023-03-18T02:44:41.565Z,11.50
2023-03-18T02:44:53.309Z,11.50
2023-03-18T02:45:07.819Z,11.50
2023-03-18T02:45:39.484Z,11.50
2023-03-18T02:46:14.524Z,11.50
2023-03-18T02:46:38.322Z,11.50
2023-03-18T02:47:04.173Z,11.40
2023-03-18T02:47:19.891Z,11.40
2023-03-18T02:47:31.745Z,11.50
2023-03-18T02:47:43.506Z,11.40
2023-03-18T02:47:56.160Z,11.40
2023-03-18T02:48:08.105Z,11.40
2023-03-18T02:48:19.854Z,11.40
2023-03-18T02:48:35.260Z,11.40
2023-03-18T02:48:47.817Z,11.40
2023-03-18T02:49:00.495Z,11.40
2023-03-18T02:49:12.221Z,11.40
2023-03-18T02:49:24.326Z,11.40
2023-03-18T02:49:36.300Z,11.40
2023-03-18T02:49:48.217Z,11.40
2023-03-18T02:50:00.001Z,11.40
2023-03-18T02:50:11.779Z,11.40
2023-03-18T02:50:24.374Z,11.40
2023-03-18T02:50:36.121Z,11.40
2023-03-18T02:50:50.039Z,11.40
2023-03-18T02:51:02.261Z,11.40
2023-03-18T02:51:14.754Z,11.40
2023-03-18T02:51:26.743Z,11.40
2023-03-18T02:51:38.614Z,11.40
2023-03-18T02:51:51.542Z,11.40
2023-03-18T02:52:03.898Z,11.40
2023-03-18T02:52:15.894Z,11.40
2023-03-18T02:52:27.660Z,11.40
2023-03-18T02:52:39.371Z,11.40
2023-03-18T02:52:51.172Z,11.40
2023-03-18T02:53:04.583Z,11.40
2023-03-18T02:53:16.350Z,11.40
2023-03-18T02:53:28.379Z,11.40
2023-03-18T02:53:40.090Z,11.40
2023-03-18T02:53:53.984Z,11.40
2023-03-18T02:54:08.172Z,11.40
2023-03-18T02:54:27.931Z,11.40
2023-03-18T02:54:39.676Z,11.40
2023-03-18T02:54:52.144Z,11.40
2023-03-18T02:55:04.058Z,11.40
2023-03-18T02:55:15.827Z,11.40
2023-03-18T02:55:27.740Z,11.40